Time;durP1;ratioP1;P1;durP2;ratioP2;P2;SDS_P1;SDS_P2;PMS_P1;PMS_P2;Temp;Humidity;BMP_temperature;BMP_pressure;BME280_temperature;BME280_humidity;BME280_pressure;Samples;Min_cycle;Max_cycle;Signal;HPM_P1;HPM_P2
2023/11/10 00:02:18;;;;;;;9.03;1.33;;;9.70;99.90;;;;;;7281209;19;20190;-78
2023/11/10 00:04:45;;;;;;;6.20;1.30;;;9.70;99.90;;;;;;7302207;19;20206;-78
2023/11/10 00:07:11;;;;;;;8.30;1.63;;;9.70;99.90;;;;;;7280005;19;20189;-78
2023/11/10 00:09:37;;;;;;;6.87;1.50;;;9.80;99.90;;;;;;7277660;19;20225;-78
2023/11/10 00:12:03;;;;;;;9.17;1.50;;;9.90;99.90;;;;;;7278549;19;20191;-79
2023/11/10 00:14:29;;;;;;;4.00;1.37;;;9.90;99.90;;;;;;7276616;19;20232;-78
2023/11/10 00:16:56;;;;;;;6.30;1.50;;;10.00;99.90;;;;;;7279096;19;20194;-78
2023/11/10 00:19:21;;;;;;;6.07;1.53;;;9.90;99.90;;;;;;7277362;19;20182;-78
2023/11/10 00:21:50;;;;;;;7.27;1.20;;;9.90;99.90;;;;;;7276715;19;20180;-77
2023/11/10 00:24:16;;;;;;;6.00;1.20;;;9.80;99.90;;;;;;7278862;19;20617;-78
2023/11/10 00:26:42;;;;;;;7.83;1.40;;;9.70;99.90;;;;;;7299878;19;20537;-77
2023/11/10 00:29:08;;;;;;;7.30;1.10;;;9.60;99.90;;;;;;7277967;19;20198;-78
2023/11/10 00:31:34;;;;;;;8.20;1.33;;;9.70;99.90;;;;;;7275389;19;20205;-77
2023/11/10 00:33:59;;;;;;;5.63;1.30;;;9.80;99.90;;;;;;7278345;19;20250;-77
2023/11/10 00:36:25;;;;;;;5.97;1.37;;;9.80;99.90;;;;;;7275438;19;20217;-78
2023/11/10 00:38:51;;;;;;;10.67;1.40;;;9.80;99.90;;;;;;7277747;19;20687;-79
2023/11/10 00:41:19;;;;;;;6.87;1.20;;;9.70;99.90;;;;;;7277984;19;20202;-80
2023/11/10 00:43:44;;;;;;;8.30;1.27;;;9.70;99.90;;;;;;7288130;19;20254;-79
2023/11/10 00:46:10;;;;;;;6.20;1.43;;;9.70;99.90;;;;;;7298628;19;20592;-79
2023/11/10 00:48:38;;;;;;;9.47;1.30;;;9.70;99.90;;;;;;7277043;19;20206;-79
2023/11/10 00:51:03;;;;;;;6.93;1.33;;;9.80;99.90;;;;;;7276062;19;20195;-79
2023/11/10 00:53:29;;;;;;;7.73;1.60;;;9.80;99.90;;;;;;7277044;19;20220;-79
2023/11/10 00:55:55;;;;;;;8.53;1.60;;;9.80;99.90;;;;;;7276246;19;20686;-79
2023/11/10 00:58:21;;;;;;;8.33;1.53;;;9.80;99.90;;;;;;7274687;19;20187;-79
2023/11/10 01:00:47;;;;;;;6.77;1.57;;;9.90;99.90;;;;;;7275832;19;20290;-79
2023/11/10 01:03:13;;;;;;;5.77;1.43;;;9.80;99.90;;;;;;7299573;19;20186;-79
2023/11/10 01:05:39;;;;;;;6.50;1.30;;;9.70;99.90;;;;;;7277847;19;20280;-79
2023/11/10 01:08:07;;;;;;;5.40;1.40;;;9.70;99.90;;;;;;7276489;19;20238;-79
2023/11/10 01:10:33;;;;;;;10.37;1.60;;;9.50;99.90;;;;;;7275001;19;20197;-79
2023/11/10 01:12:59;;;;;;;10.03;1.60;;;9.40;99.90;;;;;;7276291;19;20782;-79
2023/11/10 01:15:25;;;;;;;11.17;1.80;;;9.40;99.90;;;;;;7277283;19;20576;-78
2023/11/10 01:17:51;;;;;;;6.17;1.30;;;9.30;99.90;;;;;;7277588;19;20195;-78
2023/11/10 01:20:18;;;;;;;6.07;1.27;;;9.30;99.90;;;;;;7275868;19;20293;-78
2023/11/10 01:22:43;;;;;;;5.53;1.20;;;9.30;99.90;;;;;;7303614;19;20245;-78
2023/11/10 01:25:13;;;;;;;8.90;1.60;;;9.10;99.90;;;;;;7282022;19;20633;-78
2023/11/10 01:27:43;;;;;;;7.63;1.60;;;9.10;99.90;;;;;;7282839;19;20644;-78
2023/11/10 01:30:10;;;;;;;7.77;1.60;;;9.00;99.90;;;;;;7281866;19;20223;-78
2023/11/10 01:32:36;;;;;;;7.00;1.43;;;9.00;99.90;;;;;;7283081;19;20227;-78
2023/11/10 01:35:02;;;;;;;9.17;1.50;;;9.00;99.90;;;;;;7282566;19;20186;-78
2023/11/10 01:37:28;;;;;;;5.23;1.23;;;9.00;99.90;;;;;;7284199;19;20204;-78
2023/11/10 01:39:54;;;;;;;8.03;1.53;;;9.00;99.90;;;;;;7282547;19;20569;-78
2023/11/10 01:42:20;;;;;;;8.23;1.50;;;9.00;99.90;;;;;;7282723;19;20214;-79
2023/11/10 01:44:46;;;;;;;9.70;1.50;;;9.10;99.90;;;;;;7283955;19;20174;-78
2023/11/10 01:47:12;;;;;;;7.77;1.50;;;9.10;99.90;;;;;;7305566;19;20186;-78
2023/11/10 01:49:38;;;;;;;9.20;1.97;;;9.10;99.90;;;;;;7283672;19;20193;-78
2023/11/10 01:52:04;;;;;;;9.37;1.70;;;9.20;99.90;;;;;;7283815;19;20198;-79
2023/11/10 01:54:35;;;;;;;10.13;1.60;;;9.20;99.90;;;;;;7281939;19;20195;-78
2023/11/10 01:57:05;;;;;;;8.90;1.50;;;9.10;99.90;;;;;;7283359;19;20679;-78
2023/11/10 01:59:33;;;;;;;7.97;1.53;;;9.20;99.90;;;;;;7282466;19;20811;-78
2023/11/10 02:01:59;;;;;;;7.83;1.40;;;9.20;99.90;;;;;;7281993;19;20534;-78
2023/11/10 02:04:26;;;;;;;9.30;1.43;;;9.20;99.90;;;;;;7281858;19;20189;-78
2023/11/10 02:06:52;;;;;;;9.83;1.63;;;9.20;99.90;;;;;;7282687;19;20214;-78
2023/11/10 02:09:19;;;;;;;9.77;1.60;;;9.20;99.90;;;;;;7282661;19;20198;-78
2023/11/10 02:11:45;;;;;;;7.57;1.70;;;9.10;99.90;;;;;;7296748;19;20186;-78
2023/11/10 02:14:12;;;;;;;6.80;1.50;;;9.20;99.90;;;;;;7300607;19;20303;-78
2023/11/10 02:16:39;;;;;;;9.53;1.57;;;9.20;99.90;;;;;;7282361;19;20192;-79
2023/11/10 02:19:07;;;;;;;7.23;1.63;;;9.20;99.90;;;;;;7283238;19;20256;-78
2023/11/10 02:21:36;;;;;;;8.53;1.53;;;9.20;99.90;;;;;;7281666;19;20214;-78
2023/11/10 02:24:07;;;;;;;8.63;1.40;;;9.10;99.90;;;;;;7284280;19;20519;-79
2023/11/10 02:26:33;;;;;;;7.53;1.50;;;9.10;99.90;;;;;;7282375;19;20570;-79
2023/11/10 02:28:59;;;;;;;10.40;1.33;;;9.20;99.90;;;;;;7282278;19;20196;-78
2023/11/10 02:31:26;;;;;;;8.73;1.70;;;9.10;99.90;;;;;;7282745;19;20201;-79
2023/11/10 02:33:55;;;;;;;6.90;1.30;;;9.00;99.90;;;;;;7279115;19;20194;-79
2023/11/10 02:36:21;;;;;;;9.87;1.83;;;9.00;99.90;;;;;;7282247;19;20313;-79
2023/11/10 02:38:48;;;;;;;7.87;1.47;;;9.00;99.90;;;;;;7281084;19;20210;-78
2023/11/10 02:41:13;;;;;;;8.80;2.00;;;9.10;99.90;;;;;;7303308;19;20190;-78
2023/11/10 02:43:39;;;;;;;8.97;1.53;;;9.20;99.90;;;;;;7280654;19;20197;-78
2023/11/10 02:46:06;;;;;;;9.83;1.60;;;9.20;99.90;;;;;;7280927;19;20297;-78
2023/11/10 02:48:32;;;;;;;11.40;1.60;;;9.10;99.90;;;;;;7282650;19;20193;-79
2023/11/10 02:50:58;;;;;;;10.90;1.40;;;9.20;99.90;;;;;;7279297;19;20201;-78
2023/11/10 02:53:24;;;;;;;11.43;1.90;;;9.10;99.90;;;;;;7280410;19;20260;-78
2023/11/10 02:55:50;;;;;;;8.30;1.50;;;9.10;99.90;;;;;;7280214;19;20565;-78
2023/11/10 02:58:16;;;;;;;9.00;1.20;;;9.10;99.90;;;;;;7280614;19;20760;-78
2023/11/10 03:00:42;;;;;;;9.97;1.30;;;9.00;99.90;;;;;;7298850;19;20221;-78
2023/11/10 03:03:11;;;;;;;7.13;1.40;;;9.00;99.90;;;;;;7280203;19;20737;-78
2023/11/10 03:05:37;;;;;;;5.57;1.23;;;9.00;99.90;;;;;;7280936;19;20200;-78
2023/11/10 03:08:04;;;;;;;10.23;1.30;;;8.90;99.90;;;;;;7279689;19;20195;-78
2023/11/10 03:10:29;;;;;;;6.87;1.27;;;8.90;99.90;;;;;;7280953;19;20196;-78
2023/11/10 03:12:55;;;;;;;10.33;1.30;;;8.90;99.90;;;;;;7280101;19;20214;-78
2023/11/10 03:15:21;;;;;;;6.43;1.37;;;8.90;99.90;;;;;;7277448;19;20189;-78
2023/11/10 03:17:47;;;;;;;7.73;1.10;;;8.90;99.90;;;;;;7280939;19;20221;-78
2023/11/10 03:20:15;;;;;;;8.80;1.43;;;8.90;99.90;;;;;;7301291;19;20188;-78
2023/11/10 03:22:42;;;;;;;5.77;1.17;;;8.90;99.90;;;;;;7280250;19;20256;-78
2023/11/10 03:25:09;;;;;;;8.63;1.17;;;8.80;99.90;;;;;;7279616;19;20681;-78
2023/11/10 03:27:35;;;;;;;9.63;1.30;;;8.70;99.90;;;;;;7279452;19;20239;-78
2023/11/10 03:30:01;;;;;;;8.13;1.27;;;8.70;99.90;;;;;;7280976;19;20208;-78
2023/11/10 03:32:27;;;;;;;7.73;1.20;;;8.70;99.90;;;;;;7278468;19;20553;-78
2023/11/10 03:34:53;;;;;;;8.27;1.27;;;8.60;99.90;;;;;;7278427;19;20194;-78
2023/11/10 03:37:19;;;;;;;9.10;1.57;;;8.60;99.90;;;;;;7281912;19;20557;-79
2023/11/10 03:39:45;;;;;;;9.67;1.30;;;8.60;99.90;;;;;;7293970;19;20212;-78
2023/11/10 03:42:11;;;;;;;5.67;1.10;;;8.60;99.90;;;;;;7296357;19;20314;-78
2023/11/10 03:44:36;;;;;;;7.40;1.20;;;8.60;99.90;;;;;;7279327;19;20190;-78
2023/11/10 03:47:02;;;;;;;6.53;1.23;;;8.60;99.90;;;;;;7279493;19;20535;-78
2023/11/10 03:49:28;;;;;;;12.23;1.40;;;8.50;99.90;;;;;;7280587;19;20278;-78
2023/11/10 03:51:58;;;;;;;6.20;1.10;;;8.50;99.90;;;;;;7280659;19;20189;-78
2023/11/10 03:54:24;;;;;;;9.23;1.40;;;8.50;99.90;;;;;;7277270;19;20727;-78
2023/11/10 03:56:50;;;;;;;7.13;1.43;;;8.40;99.90;;;;;;7279526;19;20184;-78
2023/11/10 03:59:16;;;;;;;8.07;1.40;;;8.40;99.90;;;;;;7280137;19;20509;-78
2023/11/10 04:01:42;;;;;;;8.27;1.40;;;8.40;99.90;;;;;;7301494;19;20199;-78
2023/11/10 04:04:08;;;;;;;9.00;1.43;;;8.40;99.90;;;;;;7279683;19;20185;-78
2023/11/10 04:06:34;;;;;;;11.50;1.43;;;8.30;99.90;;;;;;7279763;19;20185;-78
2023/11/10 04:09:00;;;;;;;6.73;1.40;;;8.40;99.90;;;;;;7280598;19;20197;-78
2023/11/10 04:11:27;;;;;;;10.97;1.30;;;8.40;99.90;;;;;;7280939;19;20188;-78
2023/11/10 04:13:53;;;;;;;7.47;1.20;;;8.40;99.90;;;;;;7275798;19;20223;-78
2023/11/10 04:16:23;;;;;;;9.60;1.50;;;8.40;99.90;;;;;;7279969;19;20570;-79
2023/11/10 04:18:50;;;;;;;5.73;1.30;;;8.50;99.90;;;;;;7279396;19;20236;-79
2023/11/10 04:21:21;;;;;;;9.43;1.43;;;8.40;99.90;;;;;;7287962;19;20192;-79
2023/11/10 04:23:47;;;;;;;7.03;1.30;;;8.20;99.90;;;;;;7280148;19;20200;-78
2023/11/10 04:26:14;;;;;;;9.23;1.40;;;8.20;99.90;;;;;;7299517;19;20215;-78
2023/11/10 04:28:41;;;;;;;9.60;1.70;;;8.20;99.90;;;;;;7280112;19;20213;-78
2023/11/10 04:31:09;;;;;;;9.53;1.17;;;8.20;99.90;;;;;;7277770;19;20185;-78
2023/11/10 04:33:36;;;;;;;12.03;1.67;;;8.20;99.90;;;;;;7277539;19;20242;-78
2023/11/10 04:36:05;;;;;;;7.27;1.40;;;8.20;99.90;;;;;;7278416;19;20244;-78
2023/11/10 04:38:31;;;;;;;8.80;1.40;;;8.20;99.90;;;;;;7279283;19;20209;-78
2023/11/10 04:40:57;;;;;;;11.40;1.53;;;8.30;99.90;;;;;;7277490;19;20185;-79
2023/11/10 04:43:22;;;;;;;8.87;1.47;;;8.30;99.90;;;;;;7276910;19;20193;-78
2023/11/10 04:45:48;;;;;;;11.17;1.60;;;8.30;99.90;;;;;;7277329;19;20191;-78
2023/11/10 04:48:14;;;;;;;10.07;1.97;;;8.30;99.90;;;;;;7301438;19;20206;-78
2023/11/10 04:50:39;;;;;;;9.60;2.00;;;8.20;99.90;;;;;;7277107;19;20184;-78
2023/11/10 04:53:06;;;;;;;9.03;1.73;;;8.20;99.90;;;;;;7277661;19;20258;-78
2023/11/10 04:55:32;;;;;;;9.70;2.00;;;8.30;99.90;;;;;;7279663;19;20193;-78
2023/11/10 04:58:08;;;;;;;9.50;1.60;;;8.20;99.90;;;;;;7284493;19;20240;-79
2023/11/10 05:00:34;;;;;;;7.93;1.87;;;8.20;99.90;;;;;;7291404;19;20909;-79
2023/11/10 05:03:03;;;;;;;8.23;1.57;;;8.20;99.90;;;;;;7298749;19;20616;-79
2023/11/10 05:05:29;;;;;;;11.90;2.23;;;8.30;99.90;;;;;;7296772;19;20196;-79
2023/11/10 05:07:55;;;;;;;12.27;1.53;;;8.30;99.90;;;;;;7285717;19;20201;-80
2023/11/10 05:10:21;;;;;;;10.07;2.03;;;8.40;99.90;;;;;;7291260;19;20187;-79
2023/11/10 05:12:47;;;;;;;12.67;2.10;;;8.40;99.90;;;;;;7284820;19;20538;-79
2023/11/10 05:15:13;;;;;;;10.00;2.13;;;8.30;99.90;;;;;;7304875;19;20213;-79
2023/11/10 05:17:40;;;;;;;9.60;2.10;;;8.30;99.90;;;;;;7292643;19;20285;-78
2023/11/10 05:20:10;;;;;;;11.30;2.00;;;8.30;99.90;;;;;;7281684;19;20557;-78
2023/11/10 05:22:37;;;;;;;11.70;2.33;;;8.30;99.90;;;;;;7281838;19;20197;-78
2023/11/10 05:25:07;;;;;;;9.87;2.10;;;8.40;99.90;;;;;;7283218;19;20182;-78
2023/11/10 05:27:32;;;;;;;11.63;1.87;;;8.20;99.90;;;;;;7284369;19;20206;-79
2023/11/10 05:29:58;;;;;;;10.53;1.80;;;8.30;99.90;;;;;;7281488;19;20193;-78
2023/11/10 05:32:24;;;;;;;11.87;1.97;;;8.30;99.90;;;;;;7283742;19;20312;-78
2023/11/10 05:34:50;;;;;;;14.27;1.90;;;8.40;99.90;;;;;;7282990;19;20189;-78
2023/11/10 05:37:18;;;;;;;11.80;1.90;;;8.40;99.90;;;;;;7285410;19;20641;-78
2023/11/10 05:39:49;;;;;;;8.60;1.67;;;8.40;99.90;;;;;;7302839;19;20714;-78
2023/11/10 05:42:15;;;;;;;11.30;1.53;;;8.40;99.90;;;;;;7277995;19;20588;-78
2023/11/10 05:44:41;;;;;;;13.80;1.90;;;8.40;99.90;;;;;;7304746;19;20190;-79
2023/11/10 05:47:07;;;;;;;11.67;1.57;;;8.50;99.90;;;;;;7284305;19;20180;-79
2023/11/10 05:49:34;;;;;;;9.77;1.60;;;8.50;99.90;;;;;;7283747;19;20181;-79
2023/11/10 05:52:00;;;;;;;10.63;1.80;;;8.50;99.90;;;;;;7281225;19;20184;-79
2023/11/10 05:54:26;;;;;;;8.87;1.73;;;8.50;99.90;;;;;;7284278;19;20196;-78
2023/11/10 05:56:55;;;;;;;9.77;1.67;;;8.50;99.90;;;;;;7283614;19;20225;-77
2023/11/10 05:59:25;;;;;;;9.03;1.70;;;8.50;99.90;;;;;;7279763;19;20189;-78
2023/11/10 06:01:51;;;;;;;9.30;1.67;;;8.50;99.90;;;;;;7282344;19;20652;-79
2023/11/10 06:04:16;;;;;;;13.00;1.60;;;8.50;99.90;;;;;;7285707;19;20644;-78
2023/11/10 06:06:46;;;;;;;11.40;2.10;;;8.40;99.90;;;;;;7305187;19;20287;-78
2023/11/10 06:09:12;;;;;;;12.63;2.00;;;8.40;99.90;;;;;;7284178;19;20192;-79
2023/11/10 06:11:38;;;;;;;15.60;1.90;;;8.60;99.90;;;;;;7282871;19;20246;-77
2023/11/10 06:14:04;;;;;;;10.90;1.80;;;8.60;99.90;;;;;;7282564;19;20694;-78
2023/11/10 06:16:30;;;;;;;9.17;1.57;;;8.60;99.90;;;;;;7282357;19;20634;-79
2023/11/10 06:18:56;;;;;;;12.93;1.93;;;8.70;99.90;;;;;;7280629;19;20185;-78
2023/11/10 06:21:23;;;;;;;10.03;1.73;;;8.70;99.90;;;;;;7279705;19;20189;-78
2023/11/10 06:23:53;;;;;;;17.60;2.20;;;8.70;99.90;;;;;;7281705;19;20189;-78
2023/11/10 06:26:20;;;;;;;14.37;2.17;;;8.70;99.90;;;;;;7281879;19;20182;-79
2023/11/10 06:28:48;;;;;;;9.23;1.77;;;8.70;99.90;;;;;;7291291;19;20189;-77
2023/11/10 06:31:14;;;;;;;10.23;1.73;;;8.70;99.90;;;;;;7305409;19;20219;-78
2023/11/10 06:33:41;;;;;;;15.73;1.90;;;8.70;99.90;;;;;;7282146;19;20580;-78
2023/11/10 06:36:08;;;;;;;10.97;1.77;;;8.70;99.90;;;;;;7281837;19;20257;-78
2023/11/10 06:38:33;;;;;;;11.83;2.23;;;8.80;99.90;;;;;;7283374;19;20196;-78
2023/11/10 06:40:59;;;;;;;9.50;1.60;;;8.80;99.90;;;;;;7279475;19;20189;-78
2023/11/10 06:43:25;;;;;;;18.53;1.80;;;8.70;99.90;;;;;;7283323;19;20201;-79
2023/11/10 06:45:51;;;;;;;14.13;2.20;;;8.80;99.90;;;;;;7281140;19;20652;-77
2023/11/10 06:48:17;;;;;;;12.80;2.20;;;8.80;99.90;;;;;;7281723;19;20189;-78
2023/11/10 06:50:43;;;;;;;11.10;2.30;;;8.90;99.90;;;;;;7303355;19;20238;-77
2023/11/10 06:53:12;;;;;;;13.23;2.20;;;8.90;99.90;;;;;;7281338;19;20209;-77
2023/11/10 06:55:39;;;;;;;14.67;2.97;;;8.90;99.90;;;;;;7281671;19;20643;-77
2023/11/10 06:58:07;;;;;;;13.20;2.23;;;8.90;99.90;;;;;;7284274;19;20194;-77
2023/11/10 07:00:33;;;;;;;11.03;2.23;;;8.90;99.90;;;;;;7283171;19;20189;-77
2023/11/10 07:03:00;;;;;;;14.63;2.33;;;8.90;99.90;;;;;;7282967;19;20274;-76
2023/11/10 07:05:26;;;;;;;12.33;2.27;;;8.90;99.90;;;;;;7281985;19;20209;-77
2023/11/10 07:07:53;;;;;;;15.93;2.60;;;9.00;99.90;;;;;;7282716;19;20649;-77
2023/11/10 07:10:19;;;;;;;15.47;2.83;;;9.10;99.90;;;;;;7280599;19;20287;-77
2023/11/10 07:12:45;;;;;;;12.63;2.30;;;9.10;99.90;;;;;;7302556;19;20213;-77
2023/11/10 07:15:11;;;;;;;12.23;2.30;;;9.20;99.90;;;;;;7283998;19;20649;-77
2023/11/10 07:17:38;;;;;;;14.63;2.13;;;9.10;99.90;;;;;;7282045;19;20220;-77
2023/11/10 07:20:06;;;;;;;12.83;2.13;;;9.10;99.90;;;;;;7278543;19;20556;-78
2023/11/10 07:22:32;;;;;;;15.03;2.60;;;9.00;99.90;;;;;;7282066;19;20186;-77
2023/11/10 07:24:57;;;;;;;14.83;2.70;;;9.00;99.90;;;;;;7279176;19;20584;-77
2023/11/10 07:27:23;;;;;;;11.87;1.90;;;9.00;99.90;;;;;;7280093;19;20177;-77
2023/11/10 07:29:49;;;;;;;19.27;2.93;;;8.90;99.90;;;;;;7280079;19;20274;-77
2023/11/10 07:32:14;;;;;;;13.17;2.40;;;8.90;99.90;;;;;;7300617;19;20283;-77
2023/11/10 07:34:40;;;;;;;12.50;2.37;;;8.90;99.90;;;;;;7287944;19;20252;-77
2023/11/10 07:37:09;;;;;;;15.80;2.57;;;8.80;99.90;;;;;;7281798;19;20524;-77
2023/11/10 07:39:35;;;;;;;17.07;2.53;;;8.70;99.90;;;;;;7278659;19;21422;-77
2023/11/10 07:42:02;;;;;;;11.47;2.60;;;8.70;99.90;;;;;;7280109;19;20219;-77
2023/11/10 07:44:29;;;;;;;12.53;2.83;;;8.70;99.90;;;;;;7280062;19;20189;-77
2023/11/10 07:46:56;;;;;;;18.03;2.73;;;8.80;99.90;;;;;;7278938;19;20198;-77
2023/11/10 07:49:22;;;;;;;12.97;2.40;;;8.70;99.90;;;;;;7281076;19;20264;-77
2023/11/10 07:51:47;;;;;;;13.33;2.50;;;8.80;99.90;;;;;;7280537;19;20669;-77
2023/11/10 07:54:17;;;;;;;9.83;2.63;;;8.60;99.90;;;;;;7301839;19;20252;-78
2023/11/10 07:56:44;;;;;;;13.40;2.47;;;8.70;99.90;;;;;;7280119;19;20188;-77
2023/11/10 07:59:10;;;;;;;14.33;2.53;;;8.70;99.90;;;;;;7279641;19;20205;-77
2023/11/10 08:01:36;;;;;;;15.43;2.17;;;8.70;99.90;;;;;;7278744;19;20178;-77
2023/11/10 08:04:02;;;;;;;14.67;2.73;;;8.80;99.90;;;;;;7279359;19;20181;-77
2023/11/10 08:06:28;;;;;;;16.10;2.63;;;9.00;99.90;;;;;;7279063;19;20192;-77
2023/11/10 08:08:54;;;;;;;15.50;3.10;;;9.00;99.90;;;;;;7279555;19;20235;-77
2023/11/10 08:11:19;;;;;;;10.63;2.50;;;9.00;99.90;;;;;;7274652;19;20747;-78
2023/11/10 08:13:45;;;;;;;12.03;2.67;;;9.00;99.90;;;;;;7293114;19;20207;-77
2023/11/10 08:16:11;;;;;;;11.10;2.57;;;9.00;99.90;;;;;;7293759;19;20180;-77
2023/11/10 08:18:38;;;;;;;10.23;2.27;;;9.00;99.90;;;;;;7279109;19;20269;-78
2023/11/10 08:21:04;;;;;;;9.50;2.13;;;9.00;99.90;;;;;;7276975;19;20760;-78
2023/11/10 08:23:29;;;;;;;11.43;2.10;;;9.00;99.90;;;;;;7278716;19;20265;-77
2023/11/10 08:25:55;;;;;;;8.13;1.90;;;9.10;99.90;;;;;;7279750;19;20193;-77
2023/11/10 08:28:21;;;;;;;12.87;2.07;;;9.00;99.90;;;;;;7279113;19;20189;-78
2023/11/10 08:30:47;;;;;;;8.60;1.83;;;9.20;99.90;;;;;;7278862;19;20192;-77
2023/11/10 08:33:13;;;;;;;9.20;1.87;;;9.20;99.90;;;;;;7300742;19;20649;-77
2023/11/10 08:35:39;;;;;;;11.93;1.90;;;9.10;99.90;;;;;;7279716;19;20639;-77
2023/11/10 08:38:05;;;;;;;10.27;3.03;;;9.10;99.90;;;;;;7277708;19;20729;-77
2023/11/10 08:40:31;;;;;;;10.67;2.03;;;9.00;99.90;;;;;;7275976;19;20184;-77
2023/11/10 08:42:57;;;;;;;12.67;2.47;;;8.90;99.90;;;;;;7276284;19;20201;-78
2023/11/10 08:45:24;;;;;;;12.50;2.07;;;8.90;99.90;;;;;;7278798;19;20260;-77
2023/11/10 08:47:50;;;;;;;15.00;2.17;;;9.00;99.90;;;;;;7278368;19;20572;-78
2023/11/10 08:50:16;;;;;;;8.67;1.83;;;9.10;99.90;;;;;;7294579;19;20176;-77
2023/11/10 08:52:42;;;;;;;11.10;1.93;;;9.10;99.90;;;;;;7294236;19;20641;-77
2023/11/10 08:55:11;;;;;;;11.33;1.97;;;9.20;99.90;;;;;;7279126;19;20193;-78
2023/11/10 08:57:41;;;;;;;9.83;2.20;;;9.30;99.90;;;;;;7278085;19;20188;-77
2023/11/10 09:00:09;;;;;;;7.50;1.83;;;9.20;99.90;;;;;;7278872;19;20613;-78
2023/11/10 09:02:36;;;;;;;9.50;1.90;;;9.20;99.90;;;;;;7276408;19;20188;-77
2023/11/10 09:05:02;;;;;;;13.33;2.10;;;9.20;99.90;;;;;;7276248;19;20185;-78
2023/11/10 09:07:28;;;;;;;11.00;2.33;;;9.30;99.90;;;;;;7277725;19;20237;-78
2023/11/10 09:09:54;;;;;;;12.17;1.80;;;9.40;99.90;;;;;;7276674;19;20181;-77
2023/11/10 09:12:22;;;;;;;9.20;1.90;;;9.40;99.90;;;;;;7277325;19;20186;-77
2023/11/10 09:14:48;;;;;;;9.10;2.10;;;9.50;99.90;;;;;;7277706;19;20181;-77
2023/11/10 09:17:14;;;;;;;12.07;1.90;;;9.50;99.90;;;;;;7299433;19;20317;-78
2023/11/10 09:19:40;;;;;;;10.63;1.57;;;9.60;99.90;;;;;;7277892;19;20190;-78
2023/11/10 09:22:05;;;;;;;5.50;1.40;;;9.70;99.90;;;;;;7278963;19;20286;-77
2023/11/10 09:24:31;;;;;;;11.23;1.63;;;9.70;99.90;;;;;;7276538;19;20190;-78
2023/11/10 09:27:00;;;;;;;5.90;1.40;;;9.80;99.90;;;;;;7276722;19;20202;-77
2023/11/10 09:29:27;;;;;;;9.90;1.70;;;9.80;99.90;;;;;;7277535;19;20188;-78
2023/11/10 09:31:56;;;;;;;12.77;1.43;;;9.80;99.90;;;;;;7276579;19;20818;-77
2023/11/10 09:34:26;;;;;;;8.57;1.10;;;9.90;99.90;;;;;;7276830;19;20701;-77
2023/11/10 09:36:52;;;;;;;10.83;1.50;;;9.90;99.90;;;;;;7276896;19;20200;-77
2023/11/10 09:39:18;;;;;;;6.73;1.23;;;9.90;99.90;;;;;;7274915;19;20206;-77
2023/11/10 09:41:47;;;;;;;8.87;1.40;;;9.90;99.90;;;;;;7297431;19;20590;-77
2023/11/10 09:44:14;;;;;;;7.10;1.20;;;9.90;99.90;;;;;;7283938;19;20687;-77
2023/11/10 09:46:43;;;;;;;9.13;1.30;;;9.90;99.90;;;;;;7284192;19;20707;-77
2023/11/10 09:49:10;;;;;;;6.97;1.40;;;9.90;99.90;;;;;;7282253;19;20697;-77
2023/11/10 09:51:39;;;;;;;5.73;0.90;;;10.00;99.90;;;;;;7283779;19;20184;-77
2023/11/10 09:54:06;;;;;;;6.13;1.20;;;10.00;99.90;;;;;;7282908;19;20590;-77
2023/11/10 09:56:35;;;;;;;9.40;1.27;;;9.80;99.90;;;;;;7281862;19;20202;-77
2023/11/10 09:59:02;;;;;;;4.40;1.00;;;9.70;99.90;;;;;;7282158;19;20196;-77
2023/11/10 10:01:28;;;;;;;5.07;1.20;;;9.50;99.90;;;;;;7280339;19;20627;-77
2023/11/10 10:03:54;;;;;;;6.70;1.00;;;9.50;99.90;;;;;;7282832;19;20183;-77
2023/11/10 10:06:20;;;;;;;7.47;1.13;;;9.60;99.90;;;;;;7282639;19;20193;-77
2023/11/10 10:08:46;;;;;;;6.13;1.10;;;9.80;99.90;;;;;;7294895;19;20182;-77
2023/11/10 10:11:13;;;;;;;5.60;1.10;;;9.70;99.90;;;;;;7303831;19;20668;-77
2023/11/10 10:13:40;;;;;;;5.30;1.17;;;9.60;99.90;;;;;;7282660;19;20192;-77
2023/11/10 10:16:12;;;;;;;6.77;1.10;;;9.60;99.90;;;;;;7282029;19;20217;-77
2023/11/10 10:18:39;;;;;;;7.33;1.43;;;9.60;99.90;;;;;;7283072;19;20696;-77
2023/11/10 10:21:05;;;;;;;4.67;1.70;;;9.60;99.90;;;;;;7281849;19;20618;-77
2023/11/10 10:23:32;;;;;;;10.30;1.57;;;9.60;99.90;;;;;;7282346;19;20198;-77
2023/11/10 10:26:00;;;;;;;7.53;1.20;;;9.70;99.90;;;;;;7282878;19;20193;-78
2023/11/10 10:28:26;;;;;;;5.70;1.10;;;9.70;99.90;;;;;;7283090;19;20196;-77
2023/11/10 10:30:52;;;;;;;9.47;1.40;;;9.50;99.90;;;;;;7282495;19;20228;-77
2023/11/10 10:33:18;;;;;;;6.20;1.20;;;9.60;99.90;;;;;;7281478;19;20716;-77
2023/11/10 10:35:44;;;;;;;9.53;1.27;;;9.80;99.90;;;;;;7304144;19;20206;-77
2023/11/10 10:38:14;;;;;;;3.63;0.93;;;9.90;99.90;;;;;;7282427;19;20268;-78
2023/11/10 10:40:40;;;;;;;6.67;1.37;;;10.00;99.90;;;;;;7282436;19;20306;-76
2023/11/10 10:43:08;;;;;;;6.63;1.20;;;10.10;99.90;;;;;;7280543;19;20203;-76
2023/11/10 10:45:36;;;;;;;7.23;1.40;;;10.10;99.90;;;;;;7281516;19;20205;-79
2023/11/10 10:48:05;;;;;;;5.83;1.60;;;10.10;99.90;;;;;;7280517;19;20186;-77
2023/11/10 10:50:33;;;;;;;7.50;1.53;;;10.20;99.90;;;;;;7282386;19;20201;-77
2023/11/10 10:53:00;;;;;;;6.43;1.40;;;10.30;99.90;;;;;;7281101;19;20197;-77
2023/11/10 10:55:29;;;;;;;6.37;1.50;;;10.30;99.90;;;;;;7279339;19;20182;-77
2023/11/10 10:57:55;;;;;;;8.93;1.93;;;10.30;99.90;;;;;;7282005;19;20201;-77
2023/11/10 11:00:23;;;;;;;6.70;1.97;;;10.10;99.90;;;;;;7281303;19;20622;-77
2023/11/10 11:02:59;;;;;;;8.40;1.40;;;10.20;99.90;;;;;;7279924;19;20221;-76
2023/11/10 11:05:33;;;;;;;7.37;1.10;;;10.00;99.90;;;;;;7282108;19;20206;-77
2023/11/10 11:08:31;;;;;;;8.30;1.23;;;10.10;99.90;;;;;;7282344;19;20202;-77
2023/11/10 11:11:08;;;;;;;10.20;1.50;;;10.10;99.90;;;;;;7178666;19;2004370;-77
2023/11/10 11:14:00;;;;;;;6.33;1.40;;;10.00;99.90;;;;;;7280873;19;20684;-77
2023/11/10 11:16:55;;;;;;;6.33;1.57;;;9.90;99.90;;;;;;7176330;19;2004607;-77
2023/11/10 11:19:33;;;;;;;9.60;2.07;;;9.90;99.90;;;;;;7172591;19;2005084;-77
2023/11/10 11:22:00;;;;;;;6.20;1.63;;;9.90;99.90;;;;;;7281455;19;20210;-77
2023/11/10 11:24:32;;;;;;;9.57;1.70;;;9.80;99.90;;;;;;7280926;19;20215;-77
2023/11/10 11:27:07;;;;;;;10.30;1.80;;;9.70;99.90;;;;;;7280552;19;20301;-77
2023/11/10 11:29:39;;;;;;;13.17;1.60;;;9.80;99.90;;;;;;7279262;19;20190;-77
2023/11/10 11:32:08;;;;;;;13.07;1.50;;;9.80;99.90;;;;;;7278924;19;20197;-77
2023/11/10 11:34:37;;;;;;;8.77;1.97;;;9.90;99.90;;;;;;7279324;19;20186;-77
2023/11/10 11:37:04;;;;;;;11.47;1.80;;;10.00;99.90;;;;;;7279805;19;20306;-77
2023/11/10 11:39:31;;;;;;;10.03;1.70;;;10.10;99.90;;;;;;7280668;19;20665;-76
2023/11/10 11:42:03;;;;;;;12.33;1.83;;;10.30;99.90;;;;;;7278743;19;20194;-77
2023/11/10 11:44:34;;;;;;;7.20;1.73;;;10.50;99.90;;;;;;7279455;19;20198;-77
2023/11/10 11:47:07;;;;;;;12.47;2.30;;;10.40;99.90;;;;;;7278698;19;20198;-77
2023/11/10 11:49:34;;;;;;;10.40;1.70;;;10.30;99.90;;;;;;7279695;19;20192;-77
2023/11/10 11:52:03;;;;;;;8.43;1.70;;;10.40;99.90;;;;;;7274893;19;20190;-77
2023/11/10 11:54:29;;;;;;;11.73;2.10;;;10.40;99.90;;;;;;7279697;19;20207;-77
2023/11/10 11:56:57;;;;;;;12.87;1.70;;;10.40;99.90;;;;;;7279120;19;20194;-78
2023/11/10 11:59:23;;;;;;;12.03;2.27;;;10.50;99.90;;;;;;7253291;19;20273;-77
2023/11/10 12:01:49;;;;;;;12.10;1.77;;;10.60;99.90;;;;;;7269786;19;20205;-77
2023/11/10 12:04:15;;;;;;;10.30;2.00;;;10.60;99.90;;;;;;7302707;19;20190;-77
2023/11/10 12:06:42;;;;;;;15.10;2.20;;;10.90;99.90;;;;;;7278299;19;20190;-77
2023/11/10 12:09:08;;;;;;;9.17;1.70;;;10.90;99.90;;;;;;7279001;19;20271;-77
2023/11/10 12:11:35;;;;;;;11.73;2.60;;;10.90;99.90;;;;;;7276761;19;20185;-77
2023/11/10 12:14:05;;;;;;;7.90;1.70;;;11.00;99.90;;;;;;7279277;19;20187;-77
2023/11/10 12:16:35;;;;;;;9.43;2.00;;;11.00;99.90;;;;;;7278975;19;20203;-77
2023/11/10 12:19:03;;;;;;;10.13;1.87;;;11.10;99.90;;;;;;7278332;19;20854;-77
2023/11/10 12:21:32;;;;;;;11.17;1.70;;;11.10;99.90;;;;;;7275388;19;20203;-77
2023/11/10 12:24:08;;;;;;;12.10;1.80;;;11.10;99.90;;;;;;7275539;19;20203;-77
2023/11/10 12:26:35;;;;;;;10.10;2.03;;;11.00;99.90;;;;;;7278019;19;20183;-77
2023/11/10 12:29:08;;;;;;;9.40;1.60;;;11.00;99.90;;;;;;7279066;19;20223;-77
2023/11/10 12:31:34;;;;;;;9.33;1.50;;;11.10;99.90;;;;;;7278384;19;20675;-77
2023/11/10 12:34:02;;;;;;;9.20;1.50;;;11.10;99.90;;;;;;7278905;19;20198;-77
2023/11/10 12:36:35;;;;;;;10.40;1.33;;;11.00;99.90;;;;;;7278847;19;20191;-77
2023/11/10 12:39:06;;;;;;;7.40;1.20;;;10.90;99.90;;;;;;7278403;19;20185;-77
2023/11/10 12:41:32;;;;;;;8.07;1.20;;;11.00;99.90;;;;;;7278401;19;20196;-77
2023/11/10 12:43:58;;;;;;;5.87;1.00;;;11.20;99.90;;;;;;7277520;19;20663;-77
2023/11/10 12:46:24;;;;;;;10.50;1.20;;;11.20;99.90;;;;;;7277733;19;20196;-77
2023/11/10 12:48:52;;;;;;;7.17;1.40;;;11.30;99.90;;;;;;7273940;19;20215;-77
2023/11/10 12:51:23;;;;;;;7.23;1.13;;;11.30;99.90;;;;;;7276542;19;20253;-77